Time;durP1;ratioP1;P1;durP2;ratioP2;P2;SDS_P1;SDS_P2;PMS_P1;PMS_P2;Temp;Humidity;BMP_temperature;BMP_pressure;BME280_temperature;BME280_humidity;BME280_pressure;Samples;Min_cycle;Max_cycle;Signal;HPM_P1;HPM_P2
2021/08/02 00:00:03;;;;;;;17.42;8.50;;;;;;;13.45;100.00;101311.22;5192268;28;20029;-83
2021/08/02 00:02:37;;;;;;;15.05;7.88;;;;;;;13.42;100.00;101308.84;5208408;28;20029;-83
2021/08/02 00:05:08;;;;;;;17.13;8.23;;;;;;;13.39;100.00;101308.34;5198495;28;20030;-84
2021/08/02 00:07:41;;;;;;;17.52;7.82;;;;;;;13.36;100.00;101308.72;5209973;28;20280;-83
2021/08/02 00:10:14;;;;;;;20.33;7.68;;;;;;;13.35;100.00;101310.53;5191759;28;20068;-84
2021/08/02 00:12:50;;;;;;;20.17;8.40;;;;;;;13.35;100.00;101305.16;5209940;28;20479;-83
2021/08/02 00:15:20;;;;;;;16.85;8.43;;;;;;;13.31;100.00;101305.69;5210386;28;20064;-84
2021/08/02 00:17:52;;;;;;;19.17;8.32;;;;;;;13.31;100.00;101306.53;5218283;28;20030;-84
2021/08/02 00:20:28;;;;;;;20.48;8.93;;;;;;;13.35;100.00;101312.38;5219145;28;20029;-83
2021/08/02 00:23:05;;;;;;;20.25;8.73;;;;;;;13.34;100.00;101310.72;5206531;28;20040;-84
2021/08/02 00:25:37;;;;;;;24.23;8.20;;;;;;;13.32;100.00;101316.28;5219457;28;20042;-84
2021/08/02 00:28:08;;;;;;;15.70;8.30;;;;;;;13.38;100.00;101314.75;5220255;28;20083;-84
2021/08/02 00:30:38;;;;;;;22.63;8.40;;;;;;;13.41;100.00;101311.72;5220263;28;20021;-83
2021/08/02 00:33:10;;;;;;;23.13;9.40;;;;;;;13.46;100.00;101309.34;5220199;28;20040;-83
2021/08/02 00:35:56;;;;;;;15.30;8.10;;;;;;;13.49;100.00;101314.38;5220733;28;20025;-83
2021/08/02 00:38:34;;;;;;;;;;;;;;;13.55;100.00;101318.22;5220707;28;20021;-84
2021/08/02 00:41:12;;;;;;;21.05;8.27;;;;;;;13.62;100.00;101305.75;5222302;28;19909;-84
2021/08/02 00:44:10;;;;;;;18.80;9.02;;;;;;;13.65;100.00;101316.16;5216949;28;20101;-84
2021/08/02 00:46:47;;;;;;;17.80;8.32;;;;;;;13.67;100.00;101306.91;5218961;28;20030;-83
2021/08/02 00:49:23;;;;;;;17.75;8.57;;;;;;;13.68;100.00;101310.44;5221995;28;20033;-83
2021/08/02 00:51:56;;;;;;;15.32;8.15;;;;;;;13.69;100.00;101317.50;5221475;28;20021;-84
2021/08/02 00:54:26;;;;;;;22.58;9.50;;;;;;;13.71;100.00;101320.88;5221916;28;20048;-83
2021/08/02 00:56:59;;;;;;;20.25;8.75;;;;;;;13.73;100.00;101313.44;5223128;28;20022;-84
2021/08/02 00:59:31;;;;;;;20.77;8.20;;;;;;;13.74;100.00;101312.41;5204984;28;20040;-84
2021/08/02 01:02:03;;;;;;;16.92;6.88;;;;;;;13.78;100.00;101310.22;5223004;28;20032;-83
2021/08/02 01:04:37;;;;;;;13.25;7.32;;;;;;;13.83;100.00;101313.22;5222975;28;20029;-84
2021/08/02 01:07:08;;;;;;;15.20;7.28;;;;;;;13.84;100.00;101315.75;5222795;28;20060;-83
2021/08/02 01:09:42;;;;;;;16.20;6.85;;;;;;;13.85;100.00;101313.88;5223017;28;20036;-84
2021/08/02 01:12:13;;;;;;;17.13;7.50;;;;;;;13.86;100.00;101318.28;5223052;28;20022;-84
2021/08/02 01:14:54;;;;;;;14.07;6.90;;;;;;;13.90;100.00;101312.31;5222957;28;20025;-84
2021/08/02 01:17:27;;;;;;;20.23;7.72;;;;;;;13.96;100.00;101322.44;5224254;28;20021;-84
2021/08/02 01:19:58;;;;;;;18.15;6.88;;;;;;;13.95;100.00;101306.41;5223984;28;20033;-84
2021/08/02 01:22:30;;;;;;;14.10;7.88;;;;;;;13.94;100.00;101307.44;5224033;28;20148;-84
2021/08/02 01:25:33;;;;;;;18.70;8.02;;;;;;;13.94;100.00;101308.25;5223261;28;20036;-84
2021/08/02 01:28:13;;;;;;;13.07;7.30;;;;;;;13.95;100.00;101309.09;5204466;28;20033;-83
2021/08/02 01:30:45;;;;;;;18.10;7.75;;;;;;;13.95;100.00;101303.72;5222554;28;20097;-84
2021/08/02 01:33:32;;;;;;;18.13;7.05;;;;;;;13.95;100.00;101301.84;5223122;28;20029;-84
2021/08/02 01:36:05;;;;;;;15.48;8.32;;;;;;;13.96;100.00;101306.25;5223288;28;20746;-84
2021/08/02 01:38:36;;;;;;;16.55;8.63;;;;;;;13.96;100.00;101303.56;5223005;28;20022;-84
2021/08/02 01:41:06;;;;;;;14.80;8.07;;;;;;;13.97;100.00;101307.09;5222449;28;20048;-84
2021/08/02 01:43:37;;;;;;;26.45;7.93;;;;;;;13.95;100.00;101303.72;5220924;28;20060;-83
2021/08/02 01:46:19;;;;;;;15.68;7.10;;;;;;;14.02;100.00;101306.56;5220530;28;20135;-84
2021/08/02 01:48:50;;;;;;;14.73;7.53;;;;;;;14.07;100.00;101307.69;5221229;28;20049;-84
2021/08/02 01:51:33;;;;;;;22.13;7.28;;;;;;;14.03;100.00;101302.84;5220145;28;20033;-84
2021/08/02 01:54:23;;;;;;;15.43;6.78;;;;;;;14.04;100.00;101309.91;5222039;28;20038;-84
2021/08/02 01:57:05;;;;;;;20.35;7.07;;;;;;;13.99;100.00;101300.47;5219951;28;20022;-84
2021/08/02 01:59:44;;;;;;;14.30;7.35;;;;;;;13.97;100.00;101307.09;5221900;28;20085;-84
2021/08/02 02:02:18;;;;;;;17.25;6.97;;;;;;;13.97;100.00;101312.47;5222022;28;20414;-84
2021/08/02 02:04:55;;;;;;;17.20;6.95;;;;;;;13.98;100.00;101315.00;5220771;28;20054;-84
2021/08/02 02:07:29;;;;;;;17.60;8.10;;;;;;;13.98;100.00;101312.28;5214657;28;20036;-84
2021/08/02 02:10:00;;;;;;;17.50;7.90;;;;;;;13.98;100.00;101312.28;5216497;28;20028;-84
2021/08/02 02:12:31;;;;;;;18.80;7.65;;;;;;;14.02;100.00;101309.25;5206185;28;20030;-83
2021/08/02 02:15:02;;;;;;;15.60;7.25;;;;;;;14.02;100.00;101306.56;5206902;28;20036;-83
2021/08/02 02:17:36;;;;;;;22.00;7.60;;;;;;;14.05;100.00;101307.03;5204376;28;20017;-83
2021/08/02 02:20:07;;;;;;;14.45;7.25;;;;;;;14.07;100.00;101305.00;5204129;28;20387;-83
2021/08/02 02:22:38;;;;;;;20.67;8.38;;;;;;;14.00;100.00;101302.16;5206755;28;20025;-84
2021/08/02 02:25:10;;;;;;;12.57;7.05;;;;;;;13.99;100.00;101305.88;5222789;28;20052;-84
2021/08/02 02:27:42;;;;;;;15.88;7.82;;;;;;;13.97;100.00;101301.69;5224778;28;20055;-84
2021/08/02 02:30:13;;;;;;;15.77;7.88;;;;;;;13.95;100.00;101301.00;5222431;28;20081;-84
2021/08/02 02:32:44;;;;;;;13.50;7.05;;;;;;;13.96;100.00;101317.03;5224066;28;20043;-84
2021/08/02 02:35:16;;;;;;;18.95;7.40;;;;;;;13.93;100.00;101313.84;5225554;28;20017;-84
2021/08/02 02:37:47;;;;;;;19.40;7.45;;;;;;;13.91;100.00;101307.81;5225274;28;20056;-84
2021/08/02 02:40:17;;;;;;;14.20;6.97;;;;;;;13.92;100.00;101302.22;5224717;28;20406;-84
2021/08/02 02:42:49;;;;;;;13.93;8.10;;;;;;;13.90;100.00;101298.84;5211325;28;20017;-83
2021/08/02 02:45:20;;;;;;;13.98;7.00;;;;;;;13.94;100.00;101312.81;5206714;28;20311;-83
2021/08/02 02:47:50;;;;;;;10.73;6.47;;;;;;;13.98;100.00;101312.28;5206652;28;20030;-83
2021/08/02 02:50:22;;;;;;;15.27;7.57;;;;;;;13.94;100.00;101319.06;5205560;28;20021;-83
2021/08/02 02:52:53;;;;;;;13.45;6.80;;;;;;;13.89;100.00;101318.75;5203699;28;20136;-83
2021/08/02 02:55:25;;;;;;;20.67;7.70;;;;;;;13.96;100.00;101316.19;5204183;28;20029;-83
2021/08/02 02:57:56;;;;;;;22.55;8.18;;;;;;;13.92;100.00;101310.31;5203849;28;20029;-83
2021/08/02 03:00:27;;;;;;;17.80;7.90;;;;;;;13.92;100.00;101314.88;5203874;28;20021;-83
2021/08/02 03:02:59;;;;;;;17.38;7.22;;;;;;;13.87;100.00;101310.00;5199251;28;20025;-83
2021/08/02 03:05:33;;;;;;;17.23;7.25;;;;;;;13.87;100.00;101314.56;5194875;28;20044;-83
2021/08/02 03:08:06;;;;;;;17.77;7.50;;;;;;;13.91;100.00;101322.13;5203741;28;20030;-83
2021/08/02 03:10:37;;;;;;;18.10;7.53;;;;;;;13.94;100.00;101320.91;5203581;28;20032;-83
2021/08/02 03:13:07;;;;;;;18.75;6.95;;;;;;;13.92;100.00;101325.66;5203675;28;20017;-82
2021/08/02 03:15:38;;;;;;;16.48;6.90;;;;;;;13.89;100.00;101326.84;5203285;28;20430;-82
2021/08/02 03:18:09;;;;;;;15.98;7.43;;;;;;;13.91;100.00;101326.69;5203611;28;20025;-83
2021/08/02 03:20:53;;;;;;;11.77;6.25;;;;;;;13.97;100.00;101337.59;5203507;28;20029;-83
2021/08/02 03:23:28;;;;;;;15.82;6.15;;;;;;;13.95;100.00;101336.06;5203668;28;20021;-83
2021/08/02 03:26:11;;;;;;;13.85;5.72;;;;;;;13.90;100.00;101335.75;5203916;28;20449;-83
2021/08/02 03:28:50;;;;;;;15.27;6.47;;;;;;;13.90;100.00;101342.00;5203556;28;20021;-83
2021/08/02 03:31:28;;;;;;;15.95;6.10;;;;;;;13.88;100.00;101340.50;5203544;28;20053;-83
2021/08/02 03:34:01;;;;;;;19.38;7.10;;;;;;;13.84;100.00;101339.16;5203494;28;20247;-83
2021/08/02 03:36:32;;;;;;;16.42;6.63;;;;;;;13.83;100.00;101341.03;5203419;28;20504;-83
2021/08/02 03:39:03;;;;;;;19.48;7.50;;;;;;;13.81;100.00;101336.84;5190894;28;20387;-83
2021/08/02 03:41:34;;;;;;;14.63;7.28;;;;;;;13.80;100.00;101343.22;5203356;28;20083;-83
2021/08/02 03:44:05;;;;;;;16.48;7.20;;;;;;;13.80;100.00;101340.53;5203415;28;20021;-83
2021/08/02 03:46:36;;;;;;;15.07;7.72;;;;;;;13.79;100.00;101344.25;5203238;28;20095;-83
2021/08/02 03:49:07;;;;;;;19.13;7.65;;;;;;;13.79;100.00;101347.78;5203642;28;20108;-83
2021/08/02 03:51:45;;;;;;;18.85;7.63;;;;;;;13.81;100.00;101353.03;5207540;28;20038;-83
2021/08/02 03:54:16;;;;;;;19.38;7.68;;;;;;;13.79;100.00;101355.88;5207436;28;20136;-83
2021/08/02 03:56:48;;;;;;;19.10;7.22;;;;;;;13.80;100.00;101360.25;5207167;28;20022;-83
2021/08/02 03:59:18;;;;;;;23.70;9.15;;;;;;;13.78;100.00;101350.66;5207150;28;20025;-83
2021/08/02 04:01:49;;;;;;;19.85;7.90;;;;;;;13.77;100.00;101357.91;5206950;28;20059;-83
2021/08/02 04:04:20;;;;;;;22.70;8.35;;;;;;;13.74;100.00;101355.56;5206927;28;20052;-83
2021/08/02 04:06:50;;;;;;;22.80;8.27;;;;;;;13.74;100.00;101361.78;5189435;28;20032;-83
2021/08/02 04:09:21;;;;;;;18.05;8.55;;;;;;;13.76;100.00;101363.50;5206704;28;20509;-83
2021/08/02 04:11:51;;;;;;;18.33;8.13;;;;;;;13.78;100.00;101356.06;5206762;28;20032;-83
2021/08/02 04:14:22;;;;;;;19.42;8.82;;;;;;;13.78;100.00;101361.44;5189388;28;20132;-83
2021/08/02 04:16:52;;;;;;;21.25;8.65;;;;;;;13.74;100.00;101361.78;5207088;28;20025;-83
2021/08/02 04:19:23;;;;;;;17.30;8.15;;;;;;;13.73;100.00;101372.75;5206461;28;20018;-83
2021/08/02 04:21:55;;;;;;;22.05;8.93;;;;;;;13.69;100.00;101363.34;5206782;28;20025;-83
2021/08/02 04:24:27;;;;;;;16.40;7.97;;;;;;;13.70;100.00;101376.66;5193395;28;20033;-83
2021/08/02 04:26:57;;;;;;;17.38;7.88;;;;;;;13.67;100.00;101376.16;5206438;28;20030;-83
2021/08/02 04:29:28;;;;;;;19.67;8.10;;;;;;;13.68;100.00;101384.06;5206388;28;20471;-83
2021/08/02 04:31:58;;;;;;;19.17;9.23;;;;;;;13.68;100.00;101384.06;5206428;28;20087;-83
2021/08/02 04:34:28;;;;;;;17.40;7.38;;;;;;;13.69;100.00;101383.03;5206337;28;20030;-83
2021/08/02 04:36:59;;;;;;;20.80;8.75;;;;;;;13.68;100.00;101386.75;5206107;28;20056;-83
2021/08/02 04:39:29;;;;;;;19.85;9.05;;;;;;;13.66;100.00;101386.09;5206045;28;20071;-82
2021/08/02 04:42:00;;;;;;;20.55;8.10;;;;;;;13.65;100.00;101391.66;5206001;28;20509;-83
2021/08/02 04:44:30;;;;;;;20.33;8.32;;;;;;;13.63;100.00;101385.59;5206075;28;20026;-83
2021/08/02 04:47:01;;;;;;;17.98;7.43;;;;;;;13.64;100.00;101392.66;5206104;28;20104;-83
2021/08/02 04:49:31;;;;;;;21.92;9.63;;;;;;;13.64;100.00;101393.50;5206514;28;20624;-83
2021/08/02 04:52:02;;;;;;;17.80;8.40;;;;;;;13.65;100.00;101400.56;5207037;28;20025;-83
2021/08/02 04:54:33;;;;;;;22.05;9.10;;;;;;;13.64;100.00;101404.28;5207135;28;20029;-83
2021/08/02 04:57:03;;;;;;;26.25;10.90;;;;;;;13.65;100.00;101394.34;5206808;28;20022;-83
2021/08/02 04:59:34;;;;;;;23.55;9.07;;;;;;;13.65;100.00;101397.03;5206337;28;20104;-83
2021/08/02 05:02:04;;;;;;;22.30;9.57;;;;;;;13.65;100.00;101402.44;5205810;28;20502;-83
2021/08/02 05:04:35;;;;;;;17.45;7.53;;;;;;;13.67;100.00;101397.72;5193133;28;20032;-83
2021/08/02 05:07:06;;;;;;;22.05;8.95;;;;;;;13.71;100.00;101394.50;5213355;28;20040;-83
2021/08/02 05:09:36;;;;;;;22.95;8.75;;;;;;;13.76;100.00;101399.38;5206531;28;20060;-83
2021/08/02 05:12:07;;;;;;;16.10;8.40;;;;;;;13.77;100.00;101398.38;5207000;28;20064;-83
2021/08/02 05:14:37;;;;;;;20.52;8.88;;;;;;;13.78;100.00;101393.81;5207090;28;20094;-83
2021/08/02 05:17:09;;;;;;;17.20;8.40;;;;;;;13.77;100.00;101394.84;5206456;28;20022;-83
2021/08/02 05:19:39;;;;;;;21.02;9.02;;;;;;;13.64;100.00;101385.41;5206057;28;20021;-83
2021/08/02 05:22:10;;;;;;;22.20;8.32;;;;;;;13.64;100.00;101392.66;5205780;28;20021;-83
2021/08/02 05:24:40;;;;;;;27.60;10.93;;;;;;;13.60;100.00;101397.56;5206322;28;20496;-83
2021/08/02 05:27:10;;;;;;;21.08;9.77;;;;;;;13.64;100.00;101396.19;5202099;28;20040;-83
2021/08/02 05:29:41;;;;;;;20.83;9.98;;;;;;;13.65;100.00;101399.72;5195737;28;20032;-83
2021/08/02 05:32:11;;;;;;;18.02;8.48;;;;;;;13.64;100.00;101392.66;5205456;28;20147;-83
2021/08/02 05:34:43;;;;;;;21.52;8.82;;;;;;;13.61;100.00;101395.72;5205611;28;20025;-83
2021/08/02 05:37:13;;;;;;;16.58;7.60;;;;;;;13.60;100.00;101402.09;5205287;28;20112;-84
2021/08/02 05:39:44;;;;;;;25.05;8.95;;;;;;;13.61;100.00;101404.66;5204461;28;20112;-83
2021/08/02 05:42:14;;;;;;;25.05;9.45;;;;;;;13.54;100.00;101406.34;5205054;28;20025;-83
2021/08/02 05:44:45;;;;;;;17.95;8.25;;;;;;;13.53;100.00;101409.22;5206035;28;20494;-83
2021/08/02 05:47:15;;;;;;;22.60;8.90;;;;;;;13.53;100.00;101410.06;5205426;28;20380;-83
2021/08/02 05:49:46;;;;;;;23.02;8.48;;;;;;;13.56;100.00;101407.03;5206526;28;20025;-83
2021/08/02 05:52:16;;;;;;;27.55;10.10;;;;;;;13.57;100.00;101403.31;5204885;28;20021;-83
2021/08/02 05:54:47;;;;;;;30.05;9.63;;;;;;;13.58;100.00;101406.84;5205637;28;20056;-83
2021/08/02 05:57:20;;;;;;;27.80;9.35;;;;;;;13.57;100.00;101394.38;5205720;28;20021;-83
2021/08/02 05:59:51;;;;;;;28.00;8.98;;;;;;;13.62;100.00;101406.34;5205265;28;20033;-83
2021/08/02 06:02:21;;;;;;;27.13;8.82;;;;;;;13.65;100.00;101405.97;5208317;28;20483;-83
2021/08/02 06:04:52;;;;;;;29.67;9.25;;;;;;;13.72;100.00;101404.28;5192182;28;20030;-83
2021/08/02 06:07:22;;;;;;;20.58;8.05;;;;;;;13.72;100.00;101412.38;5205137;28;20083;-83
2021/08/02 06:09:55;;;;;;;16.55;7.00;;;;;;;13.72;100.00;101423.16;5205882;28;20104;-83
2021/08/02 06:12:26;;;;;;;21.05;7.20;;;;;;;13.77;100.00;101413.72;5206422;28;20029;-83
2021/08/02 06:14:56;;;;;;;29.27;8.88;;;;;;;13.76;100.00;101418.25;5209033;28;20087;-83
2021/08/02 06:17:26;;;;;;;19.67;7.75;;;;;;;13.81;100.00;101420.44;5207587;28;20053;-83
2021/08/02 06:19:57;;;;;;;22.48;8.63;;;;;;;13.79;100.00;101415.19;5189668;28;20056;-83
2021/08/02 06:22:28;;;;;;;15.95;7.22;;;;;;;13.80;100.00;101430.38;5202789;28;20029;-83
2021/08/02 06:24:58;;;;;;;21.88;8.45;;;;;;;13.85;100.00;101435.25;5200418;28;20052;-83
2021/08/02 06:27:30;;;;;;;18.48;7.95;;;;;;;13.84;100.00;101433.56;5207323;28;20405;-83
2021/08/02 06:30:03;;;;;;;15.77;6.82;;;;;;;13.86;100.00;101439.66;5208068;28;20029;-83
2021/08/02 06:32:33;;;;;;;20.55;7.65;;;;;;;13.91;100.00;101437.28;5206459;28;20055;-83
2021/08/02 06:35:04;;;;;;;17.67;8.25;;;;;;;13.87;100.00;101433.22;5208009;28;20052;-83
2021/08/02 06:37:38;;;;;;;21.92;7.70;;;;;;;13.94;100.00;101440.44;5209047;28;20389;-83
2021/08/02 06:40:12;;;;;;;14.43;7.75;;;;;;;14.03;100.00;101441.25;5210764;28;20033;-83
2021/08/02 06:42:43;;;;;;;18.55;7.35;;;;;;;14.06;100.00;101438.22;5209040;28;20032;-83
2021/08/02 06:45:14;;;;;;;15.48;7.03;;;;;;;14.09;100.00;101447.81;5205849;28;20386;-84
2021/08/02 06:47:44;;;;;;;16.55;7.68;;;;;;;14.24;100.00;101448.75;5206605;28;20205;-83
2021/08/02 06:50:15;;;;;;;18.90;7.47;;;;;;;14.36;100.00;101452.75;5206120;28;20525;-84
2021/08/02 06:52:45;;;;;;;20.55;7.70;;;;;;;14.39;100.00;101441.59;5205825;28;20040;-83
2021/08/02 06:55:16;;;;;;;18.42;7.60;;;;;;;14.36;100.00;101450.06;5198082;28;20022;-84
2021/08/02 06:57:46;;;;;;;14.75;7.32;;;;;;;14.37;100.00;101442.81;5199673;28;20575;-83
2021/08/02 07:00:17;;;;;;;18.67;7.70;;;;;;;14.39;100.00;101446.16;5187254;28;20103;-84
2021/08/02 07:02:48;;;;;;;24.70;8.55;;;;;;;14.39;100.00;101451.56;5204824;28;20033;-84
2021/08/02 07:05:20;;;;;;;20.55;7.13;;;;;;;14.44;100.00;101452.69;5204968;28;20028;-83
2021/08/02 07:07:51;;;;;;;15.68;7.28;;;;;;;14.50;100.00;101454.72;5191426;28;20040;-84
2021/08/02 07:10:21;;;;;;;17.50;7.05;;;;;;;14.62;100.00;101457.03;5203572;28;20402;-83
2021/08/02 07:12:51;;;;;;;18.25;7.13;;;;;;;14.69;100.00;101464.22;5204534;28;20027;-84
2021/08/02 07:15:22;;;;;;;13.65;6.18;;;;;;;14.81;100.00;101458.41;5204347;28;20026;-84
2021/08/02 07:17:52;;;;;;;22.80;6.10;;;;;;;14.93;100.00;101457.00;5204499;28;20025;-84
2021/08/02 07:20:23;;;;;;;11.93;5.57;;;;;;;15.05;100.00;101457.41;5204187;28;20076;-84
2021/08/02 07:22:53;;;;;;;14.77;5.57;;;;;;;15.23;100.00;101457.94;5204971;28;20037;-84
2021/08/02 07:25:24;;;;;;;13.93;6.07;;;;;;;15.38;100.00;101453.41;5207502;28;20108;-84
2021/08/02 07:27:54;;;;;;;11.75;5.97;;;;;;;15.48;100.00;101455.88;5208928;28;20025;-84
2021/08/02 07:30:25;;;;;;;16.45;6.28;;;;;;;15.61;100.00;101456.06;5205604;28;20394;-84
2021/08/02 07:32:55;;;;;;;22.90;6.70;;;;;;;15.63;100.00;101451.34;5198126;28;20037;-84
2021/08/02 07:35:27;;;;;;;12.07;6.70;;;;;;;15.89;100.00;101455.47;5208410;28;20021;-84
2021/08/02 07:37:58;;;;;;;13.85;5.50;;;;;;;16.05;100.00;101450.69;5208231;28;20025;-84
2021/08/02 07:40:29;;;;;;;9.55;5.07;;;;;;;15.84;100.00;101457.91;5207844;28;20036;-84
2021/08/02 07:42:59;;;;;;;11.98;5.10;;;;;;;16.05;100.00;101452.56;5207818;28;20021;-84
2021/08/02 07:45:29;;;;;;;9.45;4.55;;;;;;;15.89;100.00;101456.31;5207596;28;20513;-84
2021/08/02 07:48:00;;;;;;;14.73;5.78;;;;;;;16.09;100.00;101447.63;5207575;28;20033;-84
2021/08/02 07:50:30;;;;;;;16.63;6.05;;;;;;;16.15;100.00;101449.56;5207391;28;20029;-84
2021/08/02 07:53:01;;;;;;;15.02;6.60;;;;;;;16.20;100.00;101447.13;5207224;28;20041;-84
2021/08/02 07:55:31;;;;;;;13.50;6.03;;;;;;;16.21;100.00;101452.34;5207354;28;20021;-84
2021/08/02 07:58:07;;;;;;;13.90;6.13;;;;;;;16.00;100.00;101450.41;5207260;28;20028;-84
2021/08/02 08:00:38;;;;;;;13.07;6.00;;;;;;;16.27;100.00;101451.63;5207447;28;20026;-84
2021/08/02 08:03:08;;;;;;;12.82;5.80;;;;;;;16.48;100.00;101455.41;5200974;28;20032;-84
2021/08/02 08:05:39;;;;;;;16.50;5.85;;;;;;;16.69;100.00;101452.72;5199842;28;20118;-84
2021/08/02 08:08:11;;;;;;;14.43;5.65;;;;;;;16.77;100.00;101455.38;5193955;28;20040;-84
2021/08/02 08:10:41;;;;;;;11.95;4.72;;;;;;;16.97;100.00;101454.75;5206548;28;20049;-84
2021/08/02 08:13:12;;;;;;;8.38;4.80;;;;;;;17.13;100.00;101465.31;5206717;28;20021;-84
2021/08/02 08:15:42;;;;;;;11.13;4.35;;;;;;;17.20;100.00;101468.91;5188936;28;20044;-84
2021/08/02 08:18:12;;;;;;;14.40;5.00;;;;;;;17.05;100.00;101468.13;5206549;28;20441;-84
2021/08/02 08:20:43;;;;;;;18.08;5.50;;;;;;;17.03;100.00;101465.63;5206531;28;20538;-84
2021/08/02 08:23:13;;;;;;;14.68;5.10;;;;;;;17.19;100.00;101460.97;5206539;28;20372;-84
2021/08/02 08:25:44;;;;;;;13.43;4.50;;;;;;;17.38;100.00;101462.19;5206513;28;20403;-84
2021/08/02 08:28:15;;;;;;;13.70;4.18;;;;;;;17.34;100.00;101462.56;5206522;28;20033;-84
2021/08/02 08:30:45;;;;;;;12.52;5.38;;;;;;;17.46;100.00;101467.44;5206140;28;20055;-83
2021/08/02 08:33:16;;;;;;;9.75;4.82;;;;;;;17.48;100.00;101465.41;5206228;28;20037;-84
2021/08/02 08:35:46;;;;;;;12.63;5.20;;;;;;;17.53;100.00;101471.06;5206052;28;20033;-84
2021/08/02 08:38:17;;;;;;;10.88;4.85;;;;;;;17.37;100.00;101469.50;5206224;28;20061;-84
2021/08/02 08:40:48;;;;;;;11.57;4.95;;;;;;;17.10;100.00;101465.69;5206202;28;20032;-83
2021/08/02 08:43:20;;;;;;;11.55;4.85;;;;;;;17.31;100.00;101468.38;5209593;28;20033;-84
2021/08/02 08:45:50;;;;;;;11.60;5.15;;;;;;;17.46;100.00;101462.88;5195247;28;20021;-83
2021/08/02 08:48:20;;;;;;;11.00;4.85;;;;;;;17.65;100.00;101460.50;5206424;28;20025;-83
2021/08/02 08:50:52;;;;;;;11.88;4.85;;;;;;;17.67;100.00;101453.88;5206035;28;20040;-83
2021/08/02 08:53:22;;;;;;;8.98;3.90;;;;;;;18.12;100.00;101470.63;5206118;28;20052;-84
2021/08/02 08:55:53;;;;;;;10.43;4.13;;;;;;;17.96;100.00;101465.53;5206201;28;20093;-84
2021/08/02 08:58:23;;;;;;;10.93;4.13;;;;;;;17.93;100.00;101465.97;5205806;28;20036;-84
2021/08/02 09:00:59;;;;;;;10.68;4.28;;;;;;;17.89;100.00;101470.09;5205536;28;20029;-84
2021/08/02 09:03:30;;;;;;;10.07;5.22;;;;;;;17.86;100.00;101472.16;5206366;28;20045;-84
2021/08/02 09:06:05;;;;;;;9.18;4.45;;;;;;;17.90;100.00;101471.78;5205476;28;20021;-84
2021/08/02 09:08:39;;;;;;;;;;;;;;;17.97;100.00;101464.50;5206112;28;20414;-84
2021/08/02 09:11:18;;;;;;;14.07;5.55;;;;;;;18.03;100.00;101467.25;5191683;28;20004;-84
2021/08/02 09:13:49;;;;;;;12.02;4.90;;;;;;;18.02;100.00;101468.31;5205781;28;20025;-84
2021/08/02 09:16:24;;;;;;;11.30;4.68;;;;;;;18.32;100.00;101468.88;5191931;28;20034;-84
2021/08/02 09:19:01;;;;;;;13.25;4.60;;;;;;;18.30;100.00;101470.94;5205145;28;20068;-84
2021/08/02 09:21:48;;;;;;;7.97;3.72;;;;;;;18.53;100.00;101478.78;5205175;28;20021;-84
2021/08/02 09:24:30;;;;;;;11.50;3.90;;;;;;;18.77;100.00;101474.69;5205173;28;20104;-84
2021/08/02 09:27:02;;;;;;;13.77;4.63;;;;;;;18.70;100.00;101471.13;5204886;28;20375;-84
2021/08/02 09:29:34;;;;;;;9.65;4.28;;;;;;;18.81;100.00;101472.41;5204998;28;20033;-84
2021/08/02 09:32:08;;;;;;;6.75;3.38;;;;;;;18.78;100.00;101470.94;5205081;28;20502;-84
2021/08/02 09:34:46;;;;;;;10.77;3.90;;;;;;;18.93;100.00;101473.50;5204946;28;20021;-84
2021/08/02 09:37:21;;;;;;;8.57;3.55;;;;;;;18.94;100.00;101477.88;5205282;28;20533;-84
2021/08/02 09:39:53;;;;;;;7.63;3.45;;;;;;;19.37;100.00;101475.59;5204801;28;20430;-84
2021/08/02 09:42:25;;;;;;;8.95;3.85;;;;;;;19.54;100.00;101473.31;5204654;28;20067;-83
2021/08/02 09:45:03;;;;;;;9.52;4.47;;;;;;;19.58;100.00;101476.47;5204875;28;20026;-85
2021/08/02 09:47:33;;;;;;;10.52;3.72;;;;;;;19.51;100.00;101472.91;5186229;28;20426;-85
2021/08/02 09:50:04;;;;;;;11.93;4.55;;;;;;;19.47;100.00;101479.81;5204595;28;20502;-85
2021/08/02 09:52:36;;;;;;;11.25;3.83;;;;;;;19.42;100.00;101469.53;5204991;28;20042;-85
2021/08/02 09:55:11;;;;;;;9.23;3.65;;;;;;;19.66;100.00;101473.53;5204581;28;20025;-85
2021/08/02 09:57:42;;;;;;;13.88;3.33;;;;;;;19.51;100.00;101475.63;5204361;28;20045;-85
2021/08/02 10:00:14;;;;;;;8.93;3.83;;;;;;;19.13;100.00;101478.97;5204396;28;20033;-85
2021/08/02 10:02:47;;;;;;;12.02;4.00;;;;;;;19.18;100.00;101487.34;5204414;28;20029;-85
2021/08/02 10:05:19;;;;;;;11.98;4.43;;;;;;;19.22;100.00;101476.88;5204286;28;20029;-85
2021/08/02 10:07:49;;;;;;;9.95;3.45;;;;;;;19.21;100.00;101477.91;5204339;28;20033;-85
2021/08/02 10:10:20;;;;;;;8.05;3.75;;;;;;;18.99;100.00;101477.25;5203211;28;20053;-85
2021/08/02 10:12:51;;;;;;;8.48;3.40;;;;;;;18.95;100.00;101478.72;5204186;28;20047;-85
2021/08/02 10:15:30;;;;;;;6.90;4.30;;;;;;;18.62;100.00;101483.00;5204373;28;20025;-85
2021/08/02 10:18:03;;;;;;;10.30;3.60;;;;;;;19.33;100.00;101479.81;5191888;28;20087;-85
2021/08/02 10:20:34;;;;;;;6.18;3.05;;;;;;;19.63;100.00;101485.72;5204204;28;20025;-85
2021/08/02 10:23:05;;;;;;;10.57;3.20;;;;;;;20.17;100.00;101475.53;5204028;28;20025;-85
2021/08/02 10:25:38;;;;;;;6.43;3.25;;;;;;;20.20;100.00;101486.00;5204186;28;20031;-85
2021/08/02 10:28:15;;;;;;;12.00;3.83;;;;;;;20.15;100.00;101483.91;5204518;28;20362;-85
2021/08/02 10:30:47;;;;;;;9.88;3.90;;;;;;;19.81;100.00;101476.88;5203786;28;20019;-85
2021/08/02 10:33:18;;;;;;;7.38;3.75;;;;;;;20.08;100.00;101477.66;5203716;28;20513;-85
2021/08/02 10:35:48;;;;;;;9.98;3.42;;;;;;;20.50;100.00;101482.78;5204205;28;20104;-85
2021/08/02 10:38:19;;;;;;;8.27;3.30;;;;;;;20.17;100.00;101479.09;5204078;28;20025;-84
2021/08/02 10:40:52;;;;;;;9.90;3.83;;;;;;;20.13;100.00;101477.88;5203845;28;20382;-83
2021/08/02 10:43:31;;;;;;;9.95;3.67;;;;;;;20.20;100.00;101472.38;5204079;28;20041;-84
2021/08/02 10:46:16;;;;;;;7.43;3.50;;;;;;;20.85;100.00;101481.34;5203889;28;20037;-84
2021/08/02 10:48:48;;;;;;;5.95;3.03;;;;;;;21.28;100.00;101471.59;5191338;28;20494;-84
2021/08/02 10:51:21;;;;;;;7.60;3.60;;;;;;;21.21;100.00;101488.03;5203960;28;20108;-84
2021/08/02 10:53:59;;;;;;;9.65;3.13;;;;;;;21.17;100.00;101484.91;5204415;28;20022;-84
2021/08/02 10:56:31;;;;;;;7.90;3.47;;;;;;;20.74;100.00;101487.50;5204031;28;20033;-84
2021/08/02 10:59:02;;;;;;;6.28;3.35;;;;;;;21.38;100.00;101499.25;5205918;28;20032;-84
2021/08/02 11:01:36;;;;;;;9.85;3.45;;;;;;;20.99;100.00;101490.28;5208086;28;20021;-84
2021/08/02 11:04:11;;;;;;;11.57;3.90;;;;;;;20.84;100.00;101484.28;5207776;28;20029;-84
2021/08/02 11:06:42;;;;;;;5.93;2.85;;;;;;;20.73;100.00;101485.78;5207661;28;20509;-84
2021/08/02 11:09:13;;;;;;;6.78;3.30;;;;;;;21.11;100.00;101487.69;5207167;28;20029;-84
2021/08/02 11:11:47;;;;;;;7.43;2.90;;;;;;;21.21;100.00;101488.03;5207989;28;20037;-84
2021/08/02 11:14:20;;;;;;;9.75;3.40;;;;;;;21.06;100.00;101485.59;5207846;28;20036;-84
2021/08/02 11:16:52;;;;;;;6.43;2.90;;;;;;;21.14;100.00;101488.09;5207762;28;20386;-84
2021/08/02 11:19:26;;;;;;;10.13;2.97;;;;;;;21.62;100.00;101479.31;5212401;28;20025;-84
2021/08/02 11:21:58;;;;;;;4.88;2.92;;;;;;;21.38;100.00;101485.59;5211465;28;20032;-84
2021/08/02 11:24:31;;;;;;;5.55;3.30;;;;;;;21.19;100.00;101484.69;5214084;28;20104;-84
2021/08/02 11:27:05;;;;;;;6.57;3.00;;;;;;;21.23;100.00;101485.06;5214071;28;20136;-84
2021/08/02 11:29:36;;;;;;;8.20;3.83;;;;;;;21.69;100.00;101479.28;5214073;28;20026;-85
2021/08/02 11:32:09;;;;;;;9.48;3.15;;;;;;;21.51;100.00;101485.50;5214366;28;20028;-84
2021/08/02 11:34:41;;;;;;;13.10;8.55;;;;;;;21.92;100.00;101490.38;5214295;28;20021;-84